createdAt,value
2024-04-05T00:37:37.451Z,11.56
2024-04-05T00:57:37.398Z,11.77
2024-04-05T01:17:37.430Z,11.74
2024-04-05T01:37:37.328Z,11.47
2024-04-05T01:57:37.287Z,10.88
2024-04-05T02:17:37.236Z,10.75
2024-04-05T02:37:37.336Z,11.17
2024-04-05T02:57:37.167Z,11.8
2024-04-05T03:17:37.126Z,11.88
2024-04-05T03:57:37.086Z,12.26
2024-04-05T04:17:37.080Z,12.44
2024-04-05T04:37:36.977Z,12.73
2024-04-05T04:57:36.955Z,12.8
2024-04-05T05:17:36.935Z,12.65
2024-04-05T05:37:36.872Z,12.39
2024-04-05T05:57:36.839Z,12.28
2024-04-05T06:17:36.801Z,12.22
2024-04-05T06:37:36.757Z,12.69
2024-04-05T06:57:36.718Z,13.26
2024-04-05T07:17:36.703Z,13.82
2024-04-05T07:37:36.642Z,14.31
2024-04-05T07:57:36.601Z,14.48
2024-04-05T08:17:36.583Z,14.9
2024-04-05T08:57:36.485Z,15.31
2024-04-05T09:17:36.470Z,15.39
2024-04-05T09:37:36.519Z,15.92
2024-04-05T09:57:36.396Z,16.66
2024-04-05T10:17:36.332Z,16.81
2024-04-05T10:37:36.298Z,16.32
2024-04-05T10:57:36.235Z,16.32
2024-04-05T11:17:36.213Z,16.68
2024-04-05T11:37:36.170Z,17.27
2024-04-05T11:57:36.128Z,17.3
2024-04-05T12:17:36.089Z,17.8
2024-04-05T12:37:36.054Z,17.91
2024-04-05T12:57:36.001Z,17.94
2024-04-05T13:17:35.970Z,17.41
2024-04-05T13:37:35.919Z,17.32
2024-04-05T13:57:35.873Z,16.86
2024-04-05T14:17:35.911Z,16.05
2024-04-05T14:37:35.803Z,16.93
2024-04-05T14:57:35.760Z,17.69
2024-04-05T15:17:35.722Z,17.37
2024-04-05T15:37:35.769Z,17.54
2024-04-05T15:57:35.640Z,17.56
2024-04-05T16:17:35.729Z,17.51
2024-04-05T16:37:35.555Z,17.28
2024-04-05T16:57:35.506Z,17.15
2024-04-05T17:17:35.472Z,16.97
2024-04-05T17:37:35.440Z,16.68
2024-04-05T17:57:35.385Z,16.47
2024-04-05T18:17:35.421Z,16.46
2024-04-05T18:37:35.354Z,16.33
2024-04-05T18:57:35.272Z,16.08
2024-04-05T19:17:35.225Z,16.05
2024-04-05T19:37:35.255Z,15.82
2024-04-05T19:57:35.162Z,15.43
2024-04-05T20:17:35.139Z,15.34
2024-04-05T20:37:35.112Z,15.39
2024-04-05T20:57:35.085Z,15.33
2024-04-05T21:17:35.007Z,15.34
2024-04-05T21:37:34.947Z,15.43
2024-04-05T21:57:34.912Z,15.53
2024-04-05T22:17:34.904Z,15.43
2024-04-05T22:37:34.827Z,15.4
2024-04-05T22:57:34.802Z,15.41
2024-04-05T23:17:34.761Z,15.46
2024-04-05T23:37:34.715Z,15.39
2024-04-05T23:57:34.673Z,15.31
